West Melbourne, Florida
Current Conditions -  °F | °C
As of 7:53 AM on Saturday 25 Oct 2014 (Local Time) from KMLB Reporting Station
Scattered Clouds Scattered Clouds  
Wind Chill: 64°   Ceiling: Unl
Heat Index: 64°   Visibility: 10mi
Dew Point: 56°   Wind: 9mph
Humidity: 75%   Direction: 320°NW
Pressure: 29.95"   Gusts: NA
Location:  28.0786°N, 80.6027°W
Report Text: KMLB 251153Z 32008KT 10SM SCT035 18/13 A2995 RMK AO2 SLP141 T01780133 10194 20178 53011
Loading
Personal Weather Stations






























Interactive Weather Map New forecast layout! Learn more

10-Day Weather Forecast

Advertisements
Track Severe Weather on mobile